createdAt,value
2022-11-12T00:00:06.037Z,81.45
2022-11-12T00:03:26.866Z,81.08
2022-11-12T00:06:47.622Z,81.94
2022-11-12T00:10:09.066Z,81.38
2022-11-12T00:13:29.825Z,82.25
2022-11-12T00:16:50.203Z,82.43
2022-11-12T00:20:11.021Z,82.17
2022-11-12T00:23:31.508Z,82.97
2022-11-12T00:26:51.767Z,82.84
2022-11-12T00:30:12.556Z,82.68
2022-11-12T00:33:33.030Z,83.52
2022-11-12T00:36:54.224Z,84.23
2022-11-12T00:40:15.448Z,84.34
2022-11-12T00:43:36.148Z,83.58
2022-11-12T00:46:57.241Z,83.98
2022-11-12T00:50:17.943Z,83.88
2022-11-12T00:53:38.422Z,82.99
2022-11-12T00:56:58.810Z,82.36
2022-11-12T01:00:20.861Z,81.65
2022-11-12T01:03:41.437Z,80.31
2022-11-12T01:07:02.358Z,80.07
2022-11-12T01:10:23.313Z,79.81
2022-11-12T01:13:45.428Z,79.87
2022-11-12T01:17:06.301Z,81.10
2022-11-12T01:20:26.577Z,80.80
2022-11-12T01:23:46.959Z,79.90
2022-11-12T01:27:07.525Z,79.60
2022-11-12T01:30:28.065Z,81.16
2022-11-12T01:33:50.488Z,81.98
2022-11-12T01:37:10.790Z,81.72
2022-11-12T01:40:32.883Z,80.48
2022-11-12T01:44:17.346Z,80.64
2022-11-12T01:47:38.093Z,80.63
2022-11-12T01:50:58.408Z,81.76
2022-11-12T01:54:19.230Z,81.07
2022-11-12T01:57:48.810Z,80.42
2022-11-12T02:01:09.133Z,81.91
2022-11-12T02:04:29.970Z,80.19
2022-11-12T02:07:50.583Z,80.76
2022-11-12T02:11:19.970Z,81.35
2022-11-12T02:14:40.384Z,80.73
2022-11-12T02:18:00.867Z,80.51
2022-11-12T02:21:23.334Z,79.72
2022-11-12T02:24:43.799Z,80.35
2022-11-12T02:28:07.156Z,81.68
2022-11-12T02:31:27.814Z,80.93
2022-11-12T02:34:48.380Z,81.53
2022-11-12T02:38:09.278Z,81.86
2022-11-12T02:41:29.877Z,81.68
2022-11-12T02:44:50.133Z,80.70
2022-11-12T02:48:13.955Z,79.72
2022-11-12T02:51:37.042Z,81.31
2022-11-12T02:54:57.490Z,82.19
2022-11-12T02:58:17.803Z,82.59
2022-11-12T03:01:38.212Z,82.29
2022-11-12T03:04:58.585Z,82.16
2022-11-12T03:08:18.926Z,82.66
2022-11-12T03:11:39.239Z,81.81
2022-11-12T03:15:00.067Z,81.93
2022-11-12T03:18:20.633Z,81.50
2022-11-12T03:21:41.226Z,83.47
2022-11-12T03:25:01.665Z,83.42
2022-11-12T03:28:21.988Z,83.56
2022-11-12T03:31:42.489Z,84.90
2022-11-12T03:35:03.045Z,83.83
2022-11-12T03:38:23.628Z,83.88
2022-11-12T03:41:44.667Z,84.49
2022-11-12T03:45:06.223Z,83.32
2022-11-12T03:48:26.908Z,82.56
2022-11-12T03:51:47.576Z,82.55
2022-11-12T03:55:08.545Z,82.28
2022-11-12T03:58:29.225Z,82.06
2022-11-12T04:01:49.864Z,81.08
2022-11-12T04:05:29.318Z,81.49
2022-11-12T04:08:50.144Z,82.20
2022-11-12T04:12:29.411Z,83.58
2022-11-12T04:16:10.126Z,84.10
2022-11-12T04:19:49.114Z,84.00
2022-11-12T04:23:10.014Z,82.94
2022-11-12T04:26:30.416Z,82.43
2022-11-12T04:30:09.515Z,80.93
2022-11-12T04:33:30.160Z,80.78
2022-11-12T04:36:51.181Z,80.31
2022-11-12T04:40:35.239Z,79.03
2022-11-12T04:44:14.640Z,79.28
2022-11-12T04:47:38.198Z,83.63
2022-11-12T04:51:28.503Z,82.80
2022-11-12T04:54:49.136Z,82.69
2022-11-12T04:58:09.434Z,83.93
2022-11-12T05:01:29.807Z,84.34
2022-11-12T05:04:50.297Z,84.76
2022-11-12T05:08:10.698Z,86.05
2022-11-12T05:11:31.104Z,85.12
2022-11-12T05:14:51.524Z,85.48
2022-11-12T05:18:11.824Z,85.57
2022-11-12T05:21:50.726Z,86.33
2022-11-12T05:25:11.494Z,86.11
2022-11-12T05:28:36.941Z,86.42
2022-11-12T05:31:57.529Z,85.92
2022-11-12T05:35:17.995Z,87.01
2022-11-12T05:38:39.223Z,87.76
2022-11-12T05:42:14.054Z,86.93
2022-11-12T05:45:34.809Z,86.14
2022-11-12T05:48:55.165Z,85.37
2022-11-12T05:52:15.725Z,85.35
2022-11-12T05:55:37.225Z,85.70
2022-11-12T05:58:58.273Z,86.53
2022-11-12T06:02:18.699Z,85.35
2022-11-12T06:05:39.128Z,85.09
2022-11-12T06:08:59.468Z,83.54
2022-11-12T06:12:19.950Z,85.21
2022-11-12T06:15:40.438Z,84.20
2022-11-12T06:19:01.106Z,84.61
2022-11-12T06:22:21.567Z,85.12
2022-11-12T06:25:41.937Z,84.60
2022-11-12T06:29:02.292Z,84.34
2022-11-12T06:32:22.629Z,83.10
2022-11-12T06:35:43.397Z,82.98
2022-11-12T06:39:04.030Z,82.10
2022-11-12T06:42:24.502Z,81.84
2022-11-12T06:45:44.841Z,80.65
2022-11-12T06:49:05.156Z,82.63
2022-11-12T06:52:25.621Z,85.17
2022-11-12T06:55:46.268Z,85.79
2022-11-12T06:59:06.638Z,85.92
2022-11-12T07:02:27.090Z,86.42
2022-11-12T07:05:47.541Z,87.44
2022-11-12T07:09:08.073Z,88.04
2022-11-12T07:12:29.461Z,87.29
2022-11-12T07:15:50.272Z,87.54
2022-11-12T07:19:11.636Z,86.98
2022-11-12T07:22:34.495Z,88.94
2022-11-12T07:26:01.881Z,87.49
2022-11-12T07:29:42.585Z,88.41
2022-11-12T07:33:03.212Z,89.35
2022-11-12T07:36:23.669Z,89.01
2022-11-12T07:39:44.198Z,87.37
2022-11-12T07:43:04.591Z,87.84
2022-11-12T07:46:26.873Z,86.56
2022-11-12T07:49:47.353Z,86.32
2022-11-12T07:53:07.626Z,86.07
2022-11-12T07:56:28.740Z,87.36
2022-11-12T07:59:49.254Z,88.04
2022-11-12T08:03:09.739Z,88.00
2022-11-12T08:06:30.749Z,88.43
2022-11-12T08:09:51.222Z,87.58
2022-11-12T08:13:12.140Z,87.70
2022-11-12T08:16:32.681Z,87.78
2022-11-12T08:19:55.328Z,88.53
2022-11-12T08:23:15.615Z,88.21
2022-11-12T08:26:36.108Z,87.23
2022-11-12T08:29:56.499Z,85.45
2022-11-12T08:33:16.870Z,85.47
2022-11-12T08:36:37.458Z,84.91
2022-11-12T08:39:58.226Z,83.52
2022-11-12T08:43:18.584Z,82.16
2022-11-12T08:46:39.107Z,81.80
2022-11-12T08:49:59.530Z,81.83
2022-11-12T08:53:21.508Z,82.15
2022-11-12T08:56:42.076Z,83.17
2022-11-12T09:00:02.764Z,82.60
2022-11-12T09:03:25.180Z,81.81
2022-11-12T09:06:49.863Z,82.38
2022-11-12T09:10:13.473Z,84.29
2022-11-12T09:13:34.399Z,85.48
2022-11-12T09:16:55.304Z,83.49
2022-11-12T09:20:15.838Z,85.05
2022-11-12T09:23:36.769Z,84.96
2022-11-12T09:26:57.095Z,84.72
2022-11-12T09:30:17.439Z,83.23
2022-11-12T09:33:37.836Z,82.63
2022-11-12T09:36:58.241Z,81.21
2022-11-12T09:40:19.473Z,79.71
2022-11-12T09:44:06.064Z,81.83
2022-11-12T09:47:38.681Z,81.80
2022-11-12T09:51:26.093Z,83.01
2022-11-12T09:54:47.046Z,80.18
2022-11-12T09:58:14.543Z,78.92
2022-11-12T10:01:55.319Z,80.70
2022-11-12T10:05:29.123Z,81.75
2022-11-12T10:09:05.451Z,80.21
2022-11-12T10:12:48.893Z,79.90
2022-11-12T10:16:43.569Z,78.86
2022-11-12T10:20:25.805Z,80.40
2022-11-12T10:23:50.735Z,81.99
2022-11-12T10:27:23.077Z,82.47
2022-11-12T10:30:43.353Z,82.25
2022-11-12T10:34:23.785Z,81.60
2022-11-12T10:38:02.763Z,82.07
2022-11-12T10:41:32.009Z,82.86
2022-11-12T10:44:52.708Z,83.38
2022-11-12T10:48:33.501Z,83.48
2022-11-12T10:51:59.153Z,80.22
2022-11-12T10:55:22.683Z,81.24
2022-11-12T10:58:43.049Z,80.08
2022-11-12T11:02:03.597Z,80.37
2022-11-12T11:05:38.241Z,80.66
2022-11-12T11:09:13.842Z,81.15
2022-11-12T11:12:34.728Z,79.96
2022-11-12T11:16:07.006Z,82.04
2022-11-12T11:19:41.591Z,80.31
2022-11-12T11:23:26.784Z,80.59
2022-11-12T11:27:23.281Z,79.36
2022-11-12T11:31:21.462Z,81.09
2022-11-12T11:34:51.717Z,80.63
2022-11-12T11:38:39.639Z,80.69
2022-11-12T11:42:18.286Z,79.52
2022-11-12T11:46:12.092Z,79.57
2022-11-12T11:50:08.549Z,79.51
2022-11-12T11:53:44.156Z,80.48
2022-11-12T11:57:16.001Z,82.08
2022-11-12T12:00:46.070Z,80.69
2022-11-12T12:04:47.794Z,80.35
2022-11-12T12:09:01.463Z,80.32
2022-11-12T12:12:52.878Z,80.78
2022-11-12T12:16:38.209Z,80.29
2022-11-12T12:20:30.303Z,81.30
2022-11-12T12:24:18.888Z,79.73
2022-11-12T12:27:54.865Z,76.48
2022-11-12T12:31:18.851Z,74.63
2022-11-12T12:34:43.670Z,75.75
2022-11-12T12:38:35.825Z,71.71
2022-11-12T12:42:10.056Z,70.80
2022-11-12T12:45:38.599Z,71.45
2022-11-12T12:48:59.009Z,71.25
2022-11-12T12:52:19.404Z,70.88
2022-11-12T12:55:53.840Z,61.04
2022-11-12T12:59:22.871Z,53.34
2022-11-12T13:02:43.080Z,54.66
2022-11-12T13:06:27.573Z,52.27
2022-11-12T13:09:48.084Z,63.47
2022-11-12T13:13:17.684Z,65.89
2022-11-12T13:16:51.094Z,66.96
2022-11-12T13:20:32.971Z,68.48
2022-11-12T13:24:07.871Z,69.81
2022-11-12T13:27:43.468Z,70.59
2022-11-12T13:31:04.353Z,69.74
2022-11-12T13:34:31.474Z,70.21
2022-11-12T13:38:11.962Z,69.69
2022-11-12T13:41:58.620Z,69.60
2022-11-12T13:45:26.185Z,68.55
2022-11-12T13:49:03.521Z,68.10
2022-11-12T13:52:23.935Z,66.51
2022-11-12T13:55:52.496Z,64.56
2022-11-12T13:59:18.654Z,47.93
2022-11-12T14:02:41.665Z,43.46
2022-11-12T14:06:14.249Z,44.40
2022-11-12T14:09:34.701Z,57.41
2022-11-12T14:13:07.119Z,59.86
2022-11-12T14:16:33.358Z,55.17
2022-11-12T14:20:30.614Z,56.24
2022-11-12T14:23:51.234Z,46.48
2022-11-12T14:27:31.281Z,44.54
2022-11-12T14:30:51.987Z,46.12
2022-11-12T14:34:32.970Z,46.30
2022-11-12T14:38:19.205Z,45.38
2022-11-12T14:41:41.492Z,46.27
2022-11-12T14:45:02.488Z,44.22
2022-11-12T14:48:22.970Z,45.59
2022-11-12T14:52:17.146Z,45.24
2022-11-12T14:55:38.049Z,47.14
2022-11-12T14:58:58.469Z,44.08
2022-11-12T15:02:50.338Z,44.82
2022-11-12T15:06:13.226Z,45.29
2022-11-12T15:09:38.497Z,46.78
2022-11-12T15:13:19.326Z,47.67
2022-11-12T15:16:39.841Z,49.80
2022-11-12T15:20:14.009Z,48.05
2022-11-12T15:23:34.216Z,49.48
2022-11-12T15:26:55.136Z,49.38
2022-11-12T15:30:25.821Z,49.98
2022-11-12T15:33:46.504Z,51.95
2022-11-12T15:37:33.517Z,52.30
2022-11-12T15:40:57.572Z,53.61
2022-11-12T15:44:18.208Z,55.55
2022-11-12T15:47:38.548Z,58.60
2022-11-12T15:50:58.856Z,61.18
2022-11-12T15:54:19.198Z,64.34
2022-11-12T15:57:48.772Z,67.12
2022-11-12T16:01:11.125Z,69.46
2022-11-12T16:04:31.877Z,71.81
2022-11-12T16:07:52.353Z,71.26
2022-11-12T16:11:32.938Z,71.14
2022-11-12T16:14:53.316Z,72.84
2022-11-12T16:18:13.746Z,74.05
2022-11-12T16:21:34.210Z,74.98
2022-11-12T16:24:54.543Z,75.62
2022-11-12T16:28:18.853Z,75.38
2022-11-12T16:31:43.017Z,75.13
2022-11-12T16:35:03.484Z,75.63
2022-11-12T16:38:25.835Z,76.79
2022-11-12T16:41:46.450Z,75.63
2022-11-12T16:45:07.313Z,75.67
2022-11-12T16:48:27.777Z,76.33
2022-11-12T16:51:49.018Z,78.20
2022-11-12T16:55:10.217Z,79.13
2022-11-12T16:58:30.828Z,79.75
2022-11-12T17:01:51.199Z,80.21
2022-11-12T17:05:18.034Z,80.83
2022-11-12T17:08:38.622Z,80.95
2022-11-12T17:11:59.406Z,81.39
2022-11-12T17:15:20.068Z,82.57
2022-11-12T17:18:40.567Z,83.69
2022-11-12T17:22:00.981Z,83.57
2022-11-12T17:25:21.491Z,84.46
2022-11-12T17:28:41.883Z,85.48
2022-11-12T17:32:02.690Z,86.07
2022-11-12T17:35:23.242Z,86.76
2022-11-12T17:38:44.511Z,86.61
2022-11-12T17:42:05.299Z,87.73
2022-11-12T17:45:25.762Z,88.09
2022-11-12T17:48:46.154Z,88.01
2022-11-12T17:52:06.602Z,88.61
2022-11-12T17:55:26.951Z,88.30
2022-11-12T17:58:48.947Z,88.76
2022-11-12T18:02:12.205Z,89.00
2022-11-12T18:05:32.493Z,88.85
2022-11-12T18:08:57.316Z,88.81
2022-11-12T18:12:18.063Z,88.13
2022-11-12T18:15:38.742Z,88.76
2022-11-12T18:18:59.363Z,87.69
2022-11-12T18:22:20.702Z,88.32
2022-11-12T18:25:41.080Z,86.42
2022-11-12T18:29:01.545Z,87.24
2022-11-12T18:32:21.853Z,86.70
2022-11-12T18:35:42.382Z,87.33
2022-11-12T18:39:04.280Z,87.02
2022-11-12T18:42:25.048Z,86.82
2022-11-12T18:45:45.274Z,88.03
2022-11-12T18:49:05.795Z,86.99
2022-11-12T18:52:26.642Z,86.82
2022-11-12T18:55:47.069Z,86.39
2022-11-12T18:59:07.651Z,84.55
2022-11-12T19:02:28.140Z,86.50
2022-11-12T19:05:48.547Z,85.93
2022-11-12T19:09:11.802Z,86.25
2022-11-12T19:12:32.368Z,84.78
2022-11-12T19:15:52.888Z,84.39
2022-11-12T19:19:15.180Z,84.01
2022-11-12T19:22:36.004Z,85.09
2022-11-12T19:25:56.763Z,85.97
2022-11-12T19:29:17.402Z,86.30
2022-11-12T19:32:37.735Z,86.76
2022-11-12T19:36:01.003Z,86.94
2022-11-12T19:39:25.957Z,86.38
2022-11-12T19:42:48.065Z,86.81
2022-11-12T19:46:09.634Z,87.52
2022-11-12T19:49:30.282Z,87.80
2022-11-12T19:52:54.405Z,86.66
2022-11-12T19:56:17.202Z,86.11
2022-11-12T19:59:40.087Z,87.07
2022-11-12T20:03:00.962Z,87.50
2022-11-12T20:06:25.569Z,86.12
2022-11-12T20:09:46.257Z,90.70
2022-11-12T20:13:07.311Z,86.53
2022-11-12T20:16:28.049Z,87.84
2022-11-12T20:19:48.432Z,85.86
2022-11-12T20:23:08.865Z,86.15
2022-11-12T20:26:29.437Z,84.62
2022-11-12T20:29:50.072Z,84.50
2022-11-12T20:33:12.881Z,85.07
2022-11-12T20:36:33.633Z,82.90
2022-11-12T20:39:54.221Z,82.48
2022-11-12T20:43:15.476Z,83.45
2022-11-12T20:46:35.901Z,83.74
2022-11-12T20:49:56.362Z,83.16
2022-11-12T20:53:16.698Z,82.64
2022-11-12T20:56:37.405Z,82.68
2022-11-12T20:59:58.254Z,81.78
2022-11-12T21:03:18.503Z,80.54
2022-11-12T21:06:39.047Z,81.79
2022-11-12T21:09:59.894Z,82.61
2022-11-12T21:13:21.745Z,85.35
2022-11-12T21:16:42.278Z,84.65
2022-11-12T21:20:02.679Z,85.50
2022-11-12T21:23:23.894Z,85.83
2022-11-12T21:26:44.630Z,84.74
2022-11-12T21:30:05.862Z,86.01
2022-11-12T21:33:26.387Z,85.16
2022-11-12T21:36:47.331Z,86.46
2022-11-12T21:40:08.838Z,86.03
2022-11-12T21:43:29.672Z,85.83
2022-11-12T21:46:50.123Z,84.81
2022-11-12T21:50:10.767Z,83.45
2022-11-12T21:53:31.161Z,84.12
2022-11-12T21:56:51.550Z,84.01
2022-11-12T22:00:40.462Z,83.37
2022-11-12T22:03:54.625Z,84.16
2022-11-12T22:07:15.013Z,84.48
2022-11-12T22:10:35.955Z,85.75
2022-11-12T22:13:56.604Z,84.87
2022-11-12T22:17:17.109Z,87.19
2022-11-12T22:20:37.506Z,88.05
2022-11-12T22:23:58.128Z,89.22
2022-11-12T22:27:18.847Z,88.99
2022-11-12T22:30:39.206Z,89.39
2022-11-12T22:34:00.754Z,90.14
2022-11-12T22:37:21.620Z,89.90
2022-11-12T22:40:46.961Z,90.42
2022-11-12T22:44:07.517Z,91.33
2022-11-12T22:47:28.019Z,92.23
2022-11-12T22:50:48.555Z,91.49
2022-11-12T22:54:10.242Z,91.19
2022-11-12T22:57:30.867Z,91.97
2022-11-12T23:00:51.220Z,91.99
2022-11-12T23:04:11.781Z,91.99
2022-11-12T23:07:32.143Z,92.06
2022-11-12T23:10:52.624Z,91.77
2022-11-12T23:14:13.049Z,91.70
2022-11-12T23:17:33.391Z,91.90
2022-11-12T23:20:53.807Z,92.25
2022-11-12T23:24:14.358Z,91.91
2022-11-12T23:27:34.711Z,90.79
2022-11-12T23:30:55.101Z,90.66
2022-11-12T23:34:15.914Z,89.02
2022-11-12T23:37:36.417Z,89.15
2022-11-12T23:40:57.056Z,88.03
2022-11-12T23:44:17.903Z,88.57
2022-11-12T23:47:38.489Z,89.26
2022-11-12T23:51:07.880Z,89.22
2022-11-12T23:54:28.236Z,88.99
2022-11-12T23:57:48.766Z,89.05
